Líbí se Vám tento web? Budeme velmi rádi, pokud přidáte hodnocení +1

Seznam meteostanic a jejich METAR

Vyhledat místa podle abecedy:
A B C D E F G H I J K L M N O P Q R S T U V W X Y Z

Filtrovat:

ID stanice:
a/nebo
Název místa (fulltext):
 
Místo (ID)Naposledy načteno 
Vagar (EKVG) 19.01.2018 19:49 UTC Zobrazit METAR
EKVG 191949Z 17001KT CAVOK M05/M06 Q0993 RKC/
Valencia (LEVC) 20.01.2018 03:00 UTC Zobrazit METAR
LEVC 200300Z VRB02KT CAVOK 11/04 Q1023 NOSIG
Varna (LBWN) 20.01.2018 03:00 UTC Zobrazit METAR
LBWN 200300Z 05003KT 340V120 CAVOK 00/M01 Q1010 NOSIG
Verona (LIPX) 20.01.2018 02:50 UTC Zobrazit METAR
LIPX 200250Z 20006KT CAVOK M00/M03 Q1012
Vienna (LOWW) 20.01.2018 02:50 UTC Zobrazit METAR
LOWW 200250Z 17006KT 9999 SCT043 M02/M04 Q1012 NOSIG
Vientiane (VLVT) 20.01.2018 03:00 UTC Zobrazit METAR
VLVT 200300Z 32004KT 7000 FEW200 25/18 Q1015 NOSIG
Vieuxfort (TLPL) 20.01.2018 03:00 UTC Zobrazit METAR
TLPL 200300Z 07011KT 9999 FEW023 SCT042 26/23 Q1016 NOSIG
Vilnius (EYVI) 20.01.2018 02:50 UTC Zobrazit METAR
EYVI 200250Z 33004KT 6000 -SN OVC004 M03/M03 Q1004 R01/6/0294 NOSIG
Vitebsk (UMII) Zatím nenačteno  
Volgograd (URWW) Zatím nenačteno  
Voronezh (UUOO) Zatím nenačteno  
Reklama

Počasí na Váš email

Emaily jsou bez reklamy a bez spamu



Odhlásit newsletter

Reklama


Lunární kalendář

  • 24.01.
  • 31.01.
  • 07.02.
  • 15.02.



Jsme na Google Plus

Reklama
Povinné ručení



Může Vás také zajímat:


Reklama